createdAt,value
2019-05-29T00:00:35.624Z,98.88
2019-05-29T00:01:35.544Z,99.46
2019-05-29T00:02:35.497Z,99.27
2019-05-29T00:03:35.447Z,99.36
2019-05-29T00:04:35.414Z,99.36
2019-05-29T00:05:35.340Z,98.79
2019-05-29T00:06:35.292Z,98.79
2019-05-29T00:07:35.232Z,98.13
2019-05-29T00:08:35.182Z,99.65
2019-05-29T00:09:35.151Z,99.74
2019-05-29T00:10:35.071Z,99.74
2019-05-29T00:11:35.023Z,98.69
2019-05-29T00:12:34.963Z,98.88
2019-05-29T00:13:34.917Z,99.65
2019-05-29T00:14:34.886Z,99.93
2019-05-29T00:15:34.814Z,99.99
2019-05-29T00:16:34.754Z,99.99
2019-05-29T00:17:34.726Z,99.65
2019-05-29T00:18:34.659Z,99.99
2019-05-29T00:19:34.635Z,99.46
2019-05-29T00:20:34.557Z,99.65
2019-05-29T00:21:34.493Z,99.36
2019-05-29T00:22:34.441Z,99.55
2019-05-29T00:23:34.405Z,99.99
2019-05-29T00:24:34.361Z,99.99
2019-05-29T00:25:34.288Z,99.99
2019-05-29T00:26:34.231Z,99.99
2019-05-29T00:27:34.177Z,99.99
2019-05-29T00:28:34.128Z,99.93
2019-05-29T00:29:34.093Z,99.99
2019-05-29T00:30:34.015Z,99.08
2019-05-29T00:31:33.981Z,99.74
2019-05-29T00:32:33.910Z,99.99
2019-05-29T00:33:33.852Z,99.99
2019-05-29T00:34:33.830Z,99.93
2019-05-29T00:35:33.747Z,99.74
2019-05-29T00:36:33.697Z,99.99
2019-05-29T00:37:33.640Z,99.93
2019-05-29T00:38:33.591Z,99.99
2019-05-29T00:39:33.566Z,99.99
2019-05-29T00:40:33.489Z,99.99
2019-05-29T00:41:33.426Z,99.99
2019-05-29T00:42:33.387Z,99.99
2019-05-29T00:43:33.319Z,99.99
2019-05-29T00:44:34.574Z,99.99
2019-05-29T00:45:33.217Z,99.99
2019-05-29T00:46:33.159Z,99.74
2019-05-29T00:47:33.113Z,99.99
2019-05-29T00:48:33.057Z,99.99
2019-05-29T00:49:33.026Z,99.99
2019-05-29T00:50:33.009Z,99.99
2019-05-29T00:51:32.899Z,99.99
2019-05-29T00:52:32.845Z,99.99
2019-05-29T00:53:32.790Z,99.99
2019-05-29T00:54:32.762Z,99.99
2019-05-29T00:55:32.682Z,99.99
2019-05-29T00:56:32.636Z,99.99
2019-05-29T00:57:32.567Z,99.99
2019-05-29T00:58:32.516Z,99.99
2019-05-29T00:59:32.493Z,99.99
2019-05-29T01:00:32.414Z,99.99
2019-05-29T01:01:32.359Z,99.99
2019-05-29T01:02:32.309Z,99.99
2019-05-29T01:03:32.254Z,99.99
2019-05-29T01:04:32.224Z,99.99
2019-05-29T01:05:32.155Z,99.99
2019-05-29T01:06:32.093Z,99.99
2019-05-29T01:07:32.053Z,99.99
2019-05-29T01:08:31.986Z,99.99
2019-05-29T01:09:31.954Z,99.99
2019-05-29T01:10:31.897Z,99.99
2019-05-29T01:11:31.825Z,99.99
2019-05-29T01:12:31.773Z,99.99
2019-05-29T01:13:31.722Z,99.99
2019-05-29T01:14:31.694Z,99.99
2019-05-29T01:15:31.614Z,99.99
2019-05-29T01:16:31.568Z,99.99
2019-05-29T01:17:31.514Z,99.99
2019-05-29T01:18:31.456Z,99.99
2019-05-29T01:19:31.471Z,99.99
2019-05-29T01:20:31.352Z,99.99
2019-05-29T01:21:31.293Z,99.99
2019-05-29T01:22:31.242Z,99.99
2019-05-29T01:23:31.184Z,99.99
2019-05-29T01:24:31.164Z,99.99
2019-05-29T01:25:31.082Z,99.99
2019-05-29T01:26:31.023Z,99.99
2019-05-29T01:27:30.971Z,99.99
2019-05-29T01:28:30.959Z,99.99
2019-05-29T01:29:30.893Z,99.99
2019-05-29T01:30:30.812Z,99.99
2019-05-29T01:31:30.760Z,99.99
2019-05-29T01:32:30.715Z,99.99
2019-05-29T01:33:30.654Z,99.99
2019-05-29T01:34:30.643Z,99.99
2019-05-29T01:35:30.551Z,99.99
2019-05-29T01:36:30.489Z,99.99
2019-05-29T01:37:30.437Z,99.99
2019-05-29T01:38:30.390Z,99.99
2019-05-29T01:39:30.329Z,99.99
2019-05-29T01:40:30.301Z,99.99
2019-05-29T01:41:30.223Z,99.99
2019-05-29T01:42:30.172Z,99.99
2019-05-29T01:43:30.117Z,99.99
2019-05-29T01:44:30.065Z,99.99
2019-05-29T01:45:30.030Z,99.99
2019-05-29T01:46:29.959Z,99.99
2019-05-29T01:47:29.899Z,99.99
2019-05-29T01:48:29.852Z,99.99
2019-05-29T01:49:29.792Z,99.99
2019-05-29T01:50:29.750Z,99.99
2019-05-29T01:51:29.686Z,99.99
2019-05-29T01:52:29.635Z,99.99
2019-05-29T01:53:29.578Z,99.99
2019-05-29T01:54:29.524Z,99.99
2019-05-29T01:55:29.499Z,99.99
2019-05-29T01:56:29.416Z,99.99
2019-05-29T01:57:29.365Z,99.99
2019-05-29T01:58:29.311Z,99.99
2019-05-29T01:59:29.258Z,99.99
2019-05-29T02:00:29.232Z,99.99
2019-05-29T02:01:29.149Z,99.99
2019-05-29T02:02:29.099Z,99.99
2019-05-29T02:03:29.047Z,99.99
2019-05-29T02:04:28.994Z,99.99
2019-05-29T02:05:28.958Z,99.99
2019-05-29T02:06:28.886Z,99.99
2019-05-29T02:07:28.826Z,99.99
2019-05-29T02:08:28.771Z,99.99
2019-05-29T02:09:28.723Z,99.99
2019-05-29T02:10:28.689Z,99.99
2019-05-29T02:11:31.974Z,99.99
2019-05-29T02:12:28.556Z,99.99
2019-05-29T02:13:28.508Z,99.99
2019-05-29T02:14:28.453Z,99.99
2019-05-29T02:15:32.517Z,99.99
2019-05-29T02:16:28.340Z,99.99
2019-05-29T02:17:28.298Z,99.99
2019-05-29T02:18:28.244Z,99.99
2019-05-29T02:19:28.272Z,99.99
2019-05-29T02:20:28.155Z,99.99
2019-05-29T02:21:28.452Z,99.99
2019-05-29T02:22:28.024Z,99.99
2019-05-29T02:23:28.299Z,99.99
2019-05-29T02:24:27.921Z,99.99
2019-05-29T02:25:27.882Z,99.99
2019-05-29T02:26:27.810Z,99.99
2019-05-29T02:27:27.802Z,99.99
2019-05-29T02:28:27.700Z,99.99
2019-05-29T02:29:27.648Z,99.99
2019-05-29T02:30:30.458Z,99.99
2019-05-29T02:31:28.838Z,99.99
2019-05-29T02:32:27.931Z,99.99
2019-05-29T02:33:28.369Z,99.99
2019-05-29T02:34:29.440Z,99.99
2019-05-29T02:35:29.240Z,99.99
2019-05-29T02:36:28.652Z,99.99
2019-05-29T02:37:28.925Z,99.99
2019-05-29T02:38:27.647Z,99.99
2019-05-29T02:39:28.782Z,99.99
2019-05-29T02:40:28.481Z,99.99
2019-05-29T02:41:28.437Z,99.99
2019-05-29T02:42:27.167Z,99.99
2019-05-29T02:43:27.700Z,99.99
2019-05-29T02:44:27.558Z,99.99
2019-05-29T02:45:50.683Z,99.99
2019-05-29T02:46:28.603Z,99.99
2019-05-29T02:47:28.054Z,99.99
2019-05-29T02:48:27.596Z,99.99
2019-05-29T02:49:28.142Z,99.99
2019-05-29T02:50:28.755Z,99.99
2019-05-29T02:51:27.967Z,99.99
2019-05-29T02:52:26.482Z,99.99
2019-05-29T02:53:26.362Z,99.99
2019-05-29T02:54:27.288Z,99.99
2019-05-29T02:55:26.883Z,99.99
2019-05-29T02:56:27.036Z,99.99
2019-05-29T02:57:26.928Z,99.99
2019-05-29T02:58:27.737Z,99.99
2019-05-29T02:59:27.410Z,99.99
2019-05-29T03:00:27.543Z,99.99
2019-05-29T03:01:27.618Z,99.99
2019-05-29T03:02:27.768Z,99.99
2019-05-29T03:03:26.809Z,99.99
2019-05-29T03:04:26.212Z,99.99
2019-05-29T03:05:25.983Z,99.99
2019-05-29T03:06:26.260Z,99.99
2019-05-29T03:07:26.353Z,99.99
2019-05-29T03:08:27.133Z,99.99
2019-05-29T03:09:26.618Z,99.99
2019-05-29T03:10:26.663Z,99.99
2019-05-29T03:11:27.068Z,99.99
2019-05-29T03:12:26.946Z,99.99
2019-05-29T03:13:25.586Z,99.99
2019-05-29T03:14:25.386Z,99.99
2019-05-29T03:15:25.592Z,99.99
2019-05-29T03:16:26.686Z,99.99
2019-05-29T03:17:25.691Z,99.99
2019-05-29T03:18:25.783Z,99.99
2019-05-29T03:19:25.951Z,99.99
2019-05-29T03:20:25.953Z,99.99
2019-05-29T03:21:26.106Z,99.99
2019-05-29T03:22:26.292Z,99.99
2019-05-29T03:23:26.431Z,99.99
2019-05-29T03:24:26.486Z,99.99
2019-05-29T03:25:24.636Z,99.99
2019-05-29T03:26:26.916Z,99.99
2019-05-29T03:27:25.700Z,99.99
2019-05-29T03:28:25.698Z,99.99
2019-05-29T03:29:25.784Z,99.99
2019-05-29T03:30:26.987Z,99.99
2019-05-29T03:31:27.085Z,99.99
2019-05-29T03:32:27.114Z,99.99
2019-05-29T03:33:27.178Z,99.99
2019-05-29T03:34:27.327Z,99.99
2019-05-29T03:35:24.095Z,99.99
2019-05-29T03:36:24.052Z,99.99
2019-05-29T03:37:23.963Z,99.99
2019-05-29T03:38:23.922Z,99.99
2019-05-29T03:39:23.859Z,99.99
2019-05-29T03:40:23.801Z,99.99
2019-05-29T03:41:23.798Z,99.99
2019-05-29T03:42:23.699Z,99.99
2019-05-29T03:43:23.641Z,99.99
2019-05-29T03:44:23.592Z,99.99
2019-05-29T03:45:23.527Z,99.99
2019-05-29T03:46:31.679Z,99.99
2019-05-29T03:47:23.421Z,99.99
2019-05-29T03:48:23.372Z,99.99
2019-05-29T03:49:23.315Z,99.99
2019-05-29T03:50:23.257Z,99.99
2019-05-29T03:51:23.259Z,99.99
2019-05-29T03:52:23.148Z,99.99
2019-05-29T03:53:23.093Z,99.99
2019-05-29T03:54:23.041Z,99.99
2019-05-29T03:55:22.989Z,99.99
2019-05-29T03:56:22.955Z,99.99
2019-05-29T03:57:22.879Z,99.99
2019-05-29T03:58:22.828Z,99.99
2019-05-29T03:59:22.769Z,99.99
2019-05-29T04:00:22.716Z,99.99
2019-05-29T04:01:22.681Z,99.99
2019-05-29T04:02:22.625Z,99.99
2019-05-29T04:03:22.538Z,99.99
2019-05-29T04:04:22.499Z,99.99
2019-05-29T04:05:22.438Z,99.99
2019-05-29T04:06:22.433Z,99.99
2019-05-29T04:07:22.344Z,99.99
2019-05-29T04:08:22.276Z,99.99
2019-05-29T04:09:22.244Z,99.99
2019-05-29T04:10:22.197Z,99.99
2019-05-29T04:12:53.685Z,99.99
2019-05-29T04:13:53.626Z,99.99
2019-05-29T04:14:53.570Z,99.99
2019-05-29T04:15:53.521Z,99.99
2019-05-29T04:16:59.573Z,99.99
2019-05-29T04:17:53.408Z,99.99
2019-05-29T04:18:53.359Z,99.99
2019-05-29T04:19:53.293Z,99.99
2019-05-29T04:20:53.239Z,99.99
2019-05-29T04:21:53.214Z,99.99
2019-05-29T04:22:53.136Z,99.99
2019-05-29T04:23:53.080Z,99.99
2019-05-29T04:24:53.023Z,99.99
2019-05-29T04:25:52.977Z,99.99
2019-05-29T04:26:52.945Z,99.99
2019-05-29T04:27:52.873Z,99.99
2019-05-29T04:28:52.826Z,99.99
2019-05-29T04:29:52.755Z,99.99
2019-05-29T04:30:52.701Z,99.99
2019-05-29T04:31:52.669Z,99.99
2019-05-29T04:32:52.600Z,99.99
2019-05-29T04:33:52.539Z,99.99
2019-05-29T04:34:52.490Z,99.99
2019-05-29T04:35:52.436Z,99.99
2019-05-29T04:36:52.400Z,99.99
2019-05-29T04:37:52.325Z,99.99
2019-05-29T04:38:52.282Z,99.99
2019-05-29T04:39:52.224Z,99.99
2019-05-29T04:40:52.161Z,99.99
2019-05-29T04:41:52.135Z,99.99
2019-05-29T04:42:52.054Z,99.99
2019-05-29T04:43:52.011Z,99.99
2019-05-29T04:44:51.950Z,99.99
2019-05-29T04:45:51.898Z,99.84
2019-05-29T04:47:09.472Z,99.17
2019-05-29T04:47:51.795Z,99.65
2019-05-29T04:48:51.735Z,99.65
2019-05-29T04:49:51.700Z,98.69
2019-05-29T04:50:51.631Z,98.69
2019-05-29T04:51:51.602Z,99.55
2019-05-29T04:52:51.526Z,99.55
2019-05-29T04:53:51.470Z,99.08
2019-05-29T04:54:51.414Z,98.74
2019-05-29T04:55:51.366Z,98.08
2019-05-29T04:56:51.365Z,98.27
2019-05-29T04:57:51.256Z,97.70
2019-05-29T04:58:51.214Z,98.46
2019-05-29T04:59:51.153Z,98.46
2019-05-29T05:00:59.262Z,97.79
2019-05-29T05:01:51.071Z,97.65
2019-05-29T05:02:50.999Z,97.75
2019-05-29T05:03:50.971Z,97.56
2019-05-29T05:04:50.937Z,96.51
2019-05-29T05:05:50.864Z,96.32
2019-05-29T05:06:50.818Z,96.51
2019-05-29T05:07:50.735Z,96.60
2019-05-29T05:08:50.696Z,97.17
2019-05-29T05:09:50.657Z,97.56
2019-05-29T05:10:50.576Z,97.65
2019-05-29T05:11:50.556Z,97.17
2019-05-29T05:12:50.527Z,96.89
2019-05-29T05:13:50.426Z,96.22
2019-05-29T05:14:50.379Z,96.22
2019-05-29T05:15:50.324Z,96.36
2019-05-29T05:16:50.276Z,96.08
2019-05-29T05:17:50.245Z,95.41
2019-05-29T05:18:50.173Z,95.89
2019-05-29T05:19:50.115Z,95.89
2019-05-29T05:20:50.064Z,95.89
2019-05-29T05:21:50.015Z,94.74
2019-05-29T05:22:49.983Z,95.12
2019-05-29T05:23:49.913Z,94.98
2019-05-29T05:24:49.858Z,95.37
2019-05-29T05:25:49.804Z,95.56
2019-05-29T05:26:49.761Z,94.70
2019-05-29T05:27:49.734Z,93.27
2019-05-29T05:28:49.684Z,92.98
2019-05-29T05:29:49.607Z,92.69
2019-05-29T05:30:49.556Z,93.55
2019-05-29T05:31:49.501Z,93.98
2019-05-29T05:32:49.474Z,94.07
2019-05-29T05:33:49.408Z,92.26
2019-05-29T05:34:49.351Z,92.32
2019-05-29T05:35:49.293Z,93.27
2019-05-29T05:36:49.240Z,93.74
2019-05-29T05:37:49.224Z,94.89
2019-05-29T05:38:49.145Z,94.41
2019-05-29T05:39:49.095Z,94.32
2019-05-29T05:40:49.043Z,94.22
2019-05-29T05:41:48.990Z,94.41
2019-05-29T05:42:48.964Z,94.32
2019-05-29T05:43:48.887Z,93.79
2019-05-29T05:44:48.838Z,92.17
2019-05-29T05:45:48.786Z,92.36
2019-05-29T05:46:48.752Z,92.02
2019-05-29T05:47:56.804Z,91.93
2019-05-29T05:48:48.639Z,91.45
2019-05-29T05:49:48.584Z,90.35
2019-05-29T05:50:48.537Z,89.20
2019-05-29T05:51:48.485Z,88.34
2019-05-29T05:52:48.459Z,87.05
2019-05-29T05:53:48.383Z,86.72
2019-05-29T05:54:48.341Z,86.29
2019-05-29T05:55:48.292Z,88.77
2019-05-29T05:56:48.235Z,88.48
2019-05-29T05:57:48.209Z,89.73
2019-05-29T05:58:48.130Z,87.72
2019-05-29T05:59:48.082Z,85.52
2019-05-29T06:00:48.035Z,84.76
2019-05-29T06:01:47.980Z,84.95
2019-05-29T06:02:47.953Z,85.14
2019-05-29T06:03:47.880Z,85.05
2019-05-29T06:04:47.833Z,84.80
2019-05-29T06:05:47.778Z,85.18
2019-05-29T06:06:47.743Z,84.13
2019-05-29T06:07:47.703Z,85.85
2019-05-29T06:08:47.634Z,88.62
2019-05-29T06:09:47.580Z,87.57
2019-05-29T06:10:47.537Z,87.86
2019-05-29T06:11:47.487Z,86.47
2019-05-29T06:12:47.454Z,83.94
2019-05-29T06:13:47.383Z,83.75
2019-05-29T06:14:47.332Z,84.13
2019-05-29T06:15:47.281Z,84.89
2019-05-29T06:16:47.230Z,86.71
2019-05-29T06:18:10.149Z,86.23
2019-05-29T06:18:47.135Z,87.00
2019-05-29T06:19:47.085Z,88.15
2019-05-29T06:20:47.027Z,89.15
2019-05-29T06:21:47.021Z,86.66
2019-05-29T06:22:47.140Z,84.17
2019-05-29T06:23:46.885Z,83.40
2019-05-29T06:24:46.840Z,83.79
2019-05-29T06:25:46.784Z,84.75
2019-05-29T06:26:46.737Z,85.99
2019-05-29T06:27:46.684Z,85.61
2019-05-29T06:28:46.665Z,84.88
2019-05-29T06:29:46.585Z,83.06
2019-05-29T06:30:46.544Z,83.16
2019-05-29T06:31:46.486Z,81.63
2019-05-29T06:32:46.439Z,79.91
2019-05-29T06:33:46.411Z,79.05
2019-05-29T06:34:46.340Z,79.68
2019-05-29T06:35:46.289Z,80.73
2019-05-29T06:36:48.244Z,81.78
2019-05-29T06:37:46.191Z,81.97
2019-05-29T06:38:46.169Z,82.74
2019-05-29T06:39:46.096Z,82.26
2019-05-29T06:40:46.047Z,82.26
2019-05-29T06:41:45.992Z,83.03
2019-05-29T06:42:45.949Z,82.74
2019-05-29T06:43:45.918Z,83.03
2019-05-29T06:44:48.536Z,82.54
2019-05-29T06:45:45.795Z,83.22
2019-05-29T06:46:45.748Z,82.54
2019-05-29T06:47:45.704Z,81.78
2019-05-29T06:48:59.007Z,81.40
2019-05-29T06:49:46.294Z,81.34
2019-05-29T06:50:45.558Z,81.25
2019-05-29T06:51:45.504Z,80.48
2019-05-29T06:52:45.454Z,80.77
2019-05-29T06:53:45.440Z,79.62
2019-05-29T06:54:45.365Z,79.81
2019-05-29T06:55:45.307Z,80.87
2019-05-29T06:56:45.259Z,80.77
2019-05-29T06:57:45.202Z,81.25
2019-05-29T06:58:45.186Z,79.24
2019-05-29T06:59:45.116Z,78.47
2019-05-29T07:00:45.061Z,77.51
2019-05-29T07:01:45.015Z,78.28
2019-05-29T07:02:44.960Z,78.09
2019-05-29T07:03:44.932Z,78.51
2019-05-29T07:04:44.866Z,78.86
2019-05-29T07:05:50.681Z,78.76
2019-05-29T07:06:44.865Z,80.96
2019-05-29T07:07:44.709Z,80.81
2019-05-29T07:08:48.120Z,78.42
2019-05-29T07:09:45.152Z,78.13
2019-05-29T07:10:44.663Z,78.42
2019-05-29T07:11:45.519Z,78.32
2019-05-29T07:12:44.585Z,78.61
2019-05-29T07:13:47.656Z,78.51
2019-05-29T07:14:44.535Z,79.37
2019-05-29T07:15:45.743Z,79.37
2019-05-29T07:16:55.124Z,77.36
2019-05-29T07:17:44.514Z,76.02
2019-05-29T07:19:20.447Z,76.50
2019-05-29T07:19:53.954Z,76.69
2019-05-29T07:20:44.875Z,76.50
2019-05-29T07:21:45.031Z,76.12
2019-05-29T07:22:45.065Z,76.50
2019-05-29T07:23:45.186Z,75.07
2019-05-29T07:24:44.924Z,74.01
2019-05-29T07:25:45.480Z,72.38
2019-05-29T07:26:45.190Z,72.86
2019-05-29T07:27:44.974Z,73.79
2019-05-29T07:29:02.068Z,73.91
2019-05-29T07:29:43.633Z,75.35
2019-05-29T07:30:49.826Z,75.12
2019-05-29T07:31:43.535Z,73.91
2019-05-29T07:32:50.949Z,73.50
2019-05-29T07:33:43.458Z,74.58
2019-05-29T07:34:57.902Z,75.35
2019-05-29T07:35:43.631Z,75.79
2019-05-29T07:36:44.022Z,77.36
2019-05-29T07:37:43.855Z,77.55
2019-05-29T07:38:45.897Z,74.49
2019-05-29T07:39:43.590Z,73.72
2019-05-29T07:40:45.112Z,74.30
2019-05-29T07:41:43.684Z,73.21
2019-05-29T07:42:49.783Z,74.65
2019-05-29T07:43:43.843Z,74.26
2019-05-29T07:44:44.022Z,73.97
2019-05-29T07:45:43.964Z,73.88
2019-05-29T07:46:45.138Z,74.30
2019-05-29T07:47:42.891Z,74.58
2019-05-29T07:48:42.769Z,75.16
2019-05-29T07:49:44.823Z,77.46
2019-05-29T07:50:42.599Z,78.32
2019-05-29T07:51:43.333Z,79.89
2019-05-29T07:52:43.337Z,79.32
2019-05-29T07:53:42.457Z,80.27
2019-05-29T07:54:43.640Z,78.40
2019-05-29T07:55:42.662Z,77.92
2019-05-29T07:56:42.523Z,77.92
2019-05-29T07:57:42.803Z,78.02
2019-05-29T07:58:49.068Z,75.75
2019-05-29T07:59:42.669Z,76.04
2019-05-29T08:01:06.927Z,72.64
2019-05-29T08:01:42.799Z,72.80
2019-05-29T08:02:43.214Z,72.90
2019-05-29T08:03:43.287Z,75.87
2019-05-29T08:04:42.947Z,75.20
2019-05-29T08:05:45.998Z,73.86
2019-05-29T08:06:48.340Z,71.66
2019-05-29T08:07:41.770Z,71.66
2019-05-29T08:08:41.726Z,71.94
2019-05-29T08:09:41.699Z,75.01
2019-05-29T08:10:41.826Z,73.86
2019-05-29T08:11:41.600Z,74.01
2019-05-29T08:12:46.372Z,73.91
2019-05-29T08:13:41.579Z,74.11
2019-05-29T08:14:41.791Z,75.45
2019-05-29T08:15:55.291Z,75.60
2019-05-29T08:16:41.910Z,76.75
2019-05-29T08:17:42.016Z,76.75
2019-05-29T08:18:45.381Z,75.12
2019-05-29T08:19:58.260Z,74.13
2019-05-29T08:20:41.861Z,74.41
2019-05-29T08:21:42.570Z,76.33
2019-05-29T08:22:42.269Z,78.14
2019-05-29T08:23:42.185Z,79.24
2019-05-29T08:24:42.464Z,79.05
2019-05-29T08:25:41.409Z,77.42
2019-05-29T08:26:40.849Z,76.37
2019-05-29T08:27:40.798Z,78.32
2019-05-29T08:28:40.755Z,78.61
2019-05-29T08:29:40.736Z,78.51
2019-05-29T08:30:41.224Z,77.17
2019-05-29T08:31:40.705Z,76.31
2019-05-29T08:32:40.841Z,76.69
2019-05-29T08:33:40.808Z,74.87
2019-05-29T08:34:40.887Z,75.73
2019-05-29T08:35:41.535Z,77.59
2019-05-29T08:36:42.096Z,73.95
2019-05-29T08:37:40.786Z,73.86
2019-05-29T08:38:42.556Z,72.13
2019-05-29T08:39:41.180Z,73.76
2019-05-29T08:40:41.024Z,74.33
2019-05-29T08:41:40.127Z,73.09
2019-05-29T08:42:40.969Z,72.90
2019-05-29T08:43:40.019Z,74.05
2019-05-29T08:44:41.229Z,75.33
2019-05-29T08:45:39.925Z,75.23
2019-05-29T08:46:39.888Z,75.43
2019-05-29T08:47:39.827Z,72.68
2019-05-29T08:48:39.775Z,72.49
2019-05-29T08:49:39.752Z,76.42
2019-05-29T08:50:39.676Z,76.52
2019-05-29T08:51:39.629Z,71.72
2019-05-29T08:52:39.582Z,73.45
2019-05-29T08:53:39.526Z,71.82
2019-05-29T08:54:39.506Z,71.25
2019-05-29T08:55:39.436Z,71.72
2019-05-29T08:56:39.391Z,71.86
2019-05-29T08:57:39.337Z,71.34
2019-05-29T08:58:39.738Z,69.84
2019-05-29T08:59:39.265Z,73.87
2019-05-29T09:00:39.200Z,71.37
2019-05-29T09:01:39.151Z,71.05
2019-05-29T09:02:39.103Z,69.81
2019-05-29T09:03:39.063Z,66.45
2019-05-29T09:04:39.031Z,67.89
2019-05-29T09:05:38.949Z,69.33
2019-05-29T09:06:38.907Z,66.93
2019-05-29T09:07:38.860Z,66.83
2019-05-29T09:08:38.813Z,67.50
2019-05-29T09:09:38.797Z,68.85
2019-05-29T09:10:38.715Z,69.13
2019-05-29T09:11:38.670Z,68.46
2019-05-29T09:12:38.643Z,67.32
2019-05-29T09:13:38.571Z,68.66
2019-05-29T09:14:38.552Z,68.88
2019-05-29T09:15:38.500Z,68.79
2019-05-29T09:16:38.425Z,67.25
2019-05-29T09:17:38.377Z,64.85
2019-05-29T09:18:38.345Z,66.06
2019-05-29T09:19:38.291Z,66.64
2019-05-29T09:21:00.698Z,68.18
2019-05-29T09:21:38.183Z,69.39
2019-05-29T09:22:38.139Z,68.52
2019-05-29T09:23:38.091Z,68.62
2019-05-29T09:24:38.042Z,69.20
2019-05-29T09:25:38.014Z,69.52
2019-05-29T09:26:37.943Z,70.57
2019-05-29T09:27:37.905Z,70.67
2019-05-29T09:28:37.849Z,70.29
2019-05-29T09:29:37.802Z,68.08
2019-05-29T09:30:37.777Z,67.99
2019-05-29T09:31:37.706Z,67.69
2019-05-29T09:32:52.951Z,66.45
2019-05-29T09:33:37.608Z,66.55
2019-05-29T09:34:37.564Z,67.32
2019-05-29T09:35:37.532Z,69.52
2019-05-29T09:36:37.469Z,68.95
2019-05-29T09:37:37.419Z,69.48
2019-05-29T09:38:37.370Z,67.38
2019-05-29T09:39:37.319Z,68.52
2019-05-29T09:40:37.296Z,69.68
2019-05-29T09:41:37.235Z,69.71
2019-05-29T09:42:37.181Z,69.23
2019-05-29T09:43:37.138Z,69.71
2019-05-29T09:44:39.243Z,67.79
2019-05-29T09:45:37.059Z,67.99
2019-05-29T09:46:36.989Z,68.85
2019-05-29T09:47:36.935Z,69.62
2019-05-29T09:48:49.313Z,68.66
2019-05-29T09:49:36.841Z,68.43
2019-05-29T09:50:49.363Z,68.49
2019-05-29T09:51:36.742Z,68.59
2019-05-29T09:52:36.719Z,69.93
2019-05-29T09:53:36.686Z,67.63
2019-05-29T09:54:36.716Z,68.68
2019-05-29T09:55:36.597Z,69.83
2019-05-29T09:56:36.509Z,70.21
2019-05-29T09:57:36.455Z,73.76
2019-05-29T09:58:36.408Z,71.94
2019-05-29T09:59:36.359Z,69.54
2019-05-29T10:00:36.337Z,70.98
2019-05-29T10:01:36.280Z,69.64
2019-05-29T10:02:36.216Z,70.54
2019-05-29T10:03:36.167Z,71.31
2019-05-29T10:04:36.177Z,70.29
2019-05-29T10:05:36.097Z,67.76
2019-05-29T10:06:36.035Z,67.32
2019-05-29T10:07:36.343Z,67.76
2019-05-29T10:08:35.997Z,69.68
2019-05-29T10:09:35.879Z,70.35
2019-05-29T10:10:35.861Z,69.90
2019-05-29T10:11:35.781Z,67.66
2019-05-29T10:12:35.735Z,66.51
2019-05-29T10:13:35.694Z,67.76
2019-05-29T10:14:35.637Z,67.85
2019-05-29T10:15:35.613Z,67.66
2019-05-29T10:16:35.552Z,67.47
2019-05-29T10:17:35.491Z,66.51
2019-05-29T10:18:35.443Z,67.60
2019-05-29T10:19:35.408Z,68.46
2019-05-29T10:20:35.389Z,70.96
2019-05-29T10:21:40.740Z,67.60
2019-05-29T10:22:35.250Z,66.26
2019-05-29T10:23:35.209Z,68.08
2019-05-29T10:24:35.155Z,68.66
2019-05-29T10:25:35.150Z,65.78
2019-05-29T10:26:35.085Z,65.30
2019-05-29T10:27:35.020Z,66.45
2019-05-29T10:28:50.412Z,66.86
2019-05-29T10:29:34.914Z,65.91
2019-05-29T10:30:34.885Z,65.81
2019-05-29T10:31:34.846Z,65.33
2019-05-29T10:32:34.770Z,66.77
2019-05-29T10:33:34.720Z,66.90
2019-05-29T10:34:34.677Z,64.59
2019-05-29T10:35:34.633Z,64.69
2019-05-29T10:36:34.615Z,65.75
2019-05-29T10:37:34.531Z,64.12
2019-05-29T10:38:34.483Z,62.87
2019-05-29T10:39:34.437Z,62.77
2019-05-29T10:40:34.392Z,64.02
2019-05-29T10:41:34.370Z,65.75
2019-05-29T10:42:34.293Z,66.33
2019-05-29T10:43:35.058Z,66.90
2019-05-29T10:44:34.199Z,63.57
2019-05-29T10:45:34.174Z,61.94
2019-05-29T10:46:34.129Z,62.87
2019-05-29T10:47:34.059Z,62.58
2019-05-29T10:48:34.035Z,62.93
2019-05-29T10:49:33.953Z,63.51
2019-05-29T10:50:33.916Z,63.89
2019-05-29T10:51:33.888Z,65.91
2019-05-29T10:52:33.816Z,63.92
2019-05-29T10:53:33.773Z,65.08
2019-05-29T10:54:33.722Z,64.50
2019-05-29T10:55:33.672Z,64.59
2019-05-29T10:56:33.652Z,64.59
2019-05-29T10:57:33.577Z,64.98
2019-05-29T10:58:47.854Z,64.79
2019-05-29T10:59:33.484Z,66.33
2019-05-29T11:00:33.509Z,64.66
2019-05-29T11:01:33.416Z,64.47
2019-05-29T11:02:33.343Z,64.95
2019-05-29T11:03:33.303Z,66.39
2019-05-29T11:04:33.259Z,67.16
2019-05-29T11:05:33.211Z,66.80
2019-05-29T11:06:33.172Z,67.06
2019-05-29T11:07:33.105Z,67.44
2019-05-29T11:08:33.057Z,66.58
2019-05-29T11:09:44.079Z,66.80
2019-05-29T11:10:32.958Z,66.03
2019-05-29T11:11:32.937Z,64.89
2019-05-29T11:12:32.863Z,65.05
2019-05-29T11:13:32.872Z,65.14
2019-05-29T11:14:32.762Z,65.05
2019-05-29T11:15:32.724Z,66.77
2019-05-29T11:16:32.691Z,68.24
2019-05-29T11:17:32.623Z,68.12
2019-05-29T11:18:32.579Z,67.83
2019-05-29T11:19:32.529Z,67.06
2019-05-29T11:20:32.481Z,68.21
2019-05-29T11:21:32.469Z,68.12
2019-05-29T11:22:32.378Z,68.79
2019-05-29T11:23:32.334Z,68.21
2019-05-29T11:24:32.321Z,68.88
2019-05-29T11:25:32.237Z,69.74
2019-05-29T11:26:32.216Z,69.93
2019-05-29T11:27:32.143Z,68.02
2019-05-29T11:28:32.096Z,68.40
2019-05-29T11:29:32.047Z,68.59
2019-05-29T11:30:32.006Z,66.49
2019-05-29T11:31:31.973Z,66.58
2019-05-29T11:32:31.911Z,64.85
2019-05-29T11:33:31.853Z,65.14
2019-05-29T11:34:31.806Z,66.29
2019-05-29T11:35:31.755Z,64.66
2019-05-29T11:36:31.750Z,65.05
2019-05-29T11:37:31.661Z,66.42
2019-05-29T11:38:31.612Z,66.33
2019-05-29T11:39:31.565Z,65.84
2019-05-29T11:40:31.586Z,67.09
2019-05-29T11:41:31.494Z,65.01
2019-05-29T11:42:31.419Z,62.68
2019-05-29T11:43:31.381Z,63.16
2019-05-29T11:44:31.329Z,63.92
2019-05-29T11:45:35.212Z,62.19
2019-05-29T11:46:31.257Z,61.91
2019-05-29T11:47:31.184Z,62.23
2019-05-29T11:48:31.132Z,62.52
2019-05-29T11:49:31.107Z,61.36
2019-05-29T11:50:31.041Z,62.42
2019-05-29T11:51:31.022Z,63.25
2019-05-29T11:52:42.565Z,63.38
2019-05-29T11:53:30.977Z,63.38
2019-05-29T11:54:30.852Z,64.63
2019-05-29T11:55:30.934Z,62.23
2019-05-29T11:56:30.774Z,62.58
2019-05-29T11:57:30.745Z,64.50
2019-05-29T11:58:31.776Z,65.08
2019-05-29T11:59:30.609Z,62.36
2019-05-29T12:00:30.568Z,62.26
2019-05-29T12:01:48.576Z,63.60
2019-05-29T12:02:30.489Z,66.77
2019-05-29T12:03:30.426Z,69.87
2019-05-29T12:04:30.373Z,68.05
2019-05-29T12:05:30.326Z,64.69
2019-05-29T12:06:30.277Z,63.73
2019-05-29T12:07:30.251Z,63.64
2019-05-29T12:08:30.179Z,64.79
2019-05-29T12:09:33.225Z,64.02
2019-05-29T12:10:30.091Z,62.96
2019-05-29T12:11:30.035Z,63.54
2019-05-29T12:12:30.011Z,63.99
2019-05-29T12:13:29.941Z,63.60
2019-05-29T12:14:29.903Z,63.70
2019-05-29T12:15:29.845Z,64.56
2019-05-29T12:16:29.796Z,64.56
2019-05-29T12:17:29.774Z,66.29
2019-05-29T12:18:29.696Z,66.00
2019-05-29T12:19:29.657Z,63.99
2019-05-29T12:20:29.605Z,63.60
2019-05-29T12:21:29.558Z,63.99
2019-05-29T12:22:29.527Z,62.07
2019-05-29T12:23:29.472Z,62.26
2019-05-29T12:24:29.413Z,63.79
2019-05-29T12:25:29.371Z,65.33
2019-05-29T12:26:29.314Z,65.05
2019-05-29T12:27:29.291Z,63.99
2019-05-29T12:28:29.242Z,66.58
2019-05-29T12:29:29.167Z,62.84
2019-05-29T12:30:29.121Z,64.56
2019-05-29T12:31:29.078Z,66.58
2019-05-29T12:32:29.049Z,67.44
2019-05-29T12:33:28.975Z,67.19
2019-05-29T12:34:28.928Z,65.84
2019-05-29T12:35:28.883Z,64.50
2019-05-29T12:36:28.829Z,66.23
2019-05-29T12:37:28.810Z,64.31
2019-05-29T12:38:28.741Z,63.73
2019-05-29T12:39:28.683Z,63.06
2019-05-29T12:40:28.638Z,64.22
2019-05-29T12:41:28.592Z,63.73
2019-05-29T12:42:28.571Z,64.98
2019-05-29T12:43:28.529Z,62.96
2019-05-29T12:44:28.446Z,62.87
2019-05-29T12:45:28.398Z,63.45
2019-05-29T12:46:28.350Z,63.92
2019-05-29T12:47:28.330Z,62.29
2019-05-29T12:48:28.252Z,62.77
2019-05-29T12:49:28.205Z,64.89
2019-05-29T12:50:28.166Z,64.69
2019-05-29T12:51:28.142Z,65.75
2019-05-29T12:52:28.087Z,65.84
2019-05-29T12:53:30.943Z,65.65